sensor_id;sensor_type;location;lat;lon;timestamp;temperature;humidity
16485;DHT22;8353;47.856;12.344;2023-02-24T00:00:56;9.10;99.90
16485;DHT22;8353;47.856;12.344;2023-02-24T00:03:32;9.10;99.90
16485;DHT22;8353;47.856;12.344;2023-02-24T00:06:03;9.10;99.90
16485;DHT22;8353;47.856;12.344;2023-02-24T00:08:40;9.10;99.90
16485;DHT22;8353;47.856;12.344;2023-02-24T00:11:13;9.10;99.90
16485;DHT22;8353;47.856;12.344;2023-02-24T00:13:44;8.90;99.90
16485;DHT22;8353;47.856;12.344;2023-02-24T00:16:16;9.00;99.90
16485;DHT22;8353;47.856;12.344;2023-02-24T00:18:48;8.90;99.90
16485;DHT22;8353;47.856;12.344;2023-02-24T00:21:19;8.90;99.90
16485;DHT22;8353;47.856;12.344;2023-02-24T00:23:50;8.90;99.90
16485;DHT22;8353;47.856;12.344;2023-02-24T00:26:22;8.90;99.90
16485;DHT22;8353;47.856;12.344;2023-02-24T00:28:52;8.90;99.90
16485;DHT22;8353;47.856;12.344;2023-02-24T00:31:23;8.90;99.90
16485;DHT22;8353;47.856;12.344;2023-02-24T00:33:55;8.80;99.90
16485;DHT22;8353;47.856;12.344;2023-02-24T00:36:27;8.80;99.90
16485;DHT22;8353;47.856;12.344;2023-02-24T00:39:00;8.90;99.90
16485;DHT22;8353;47.856;12.344;2023-02-24T00:41:31;8.80;99.90
16485;DHT22;8353;47.856;12.344;2023-02-24T00:44:04;8.80;99.90
16485;DHT22;8353;47.856;12.344;2023-02-24T00:46:37;8.70;99.90
16485;DHT22;8353;47.856;12.344;2023-02-24T00:49:12;8.70;99.90
16485;DHT22;8353;47.856;12.344;2023-02-24T00:51:47;8.70;99.90
16485;DHT22;8353;47.856;12.344;2023-02-24T00:54:22;8.70;99.90
16485;DHT22;8353;47.856;12.344;2023-02-24T00:56:56;8.70;99.90
16485;DHT22;8353;47.856;12.344;2023-02-24T00:59:26;8.70;99.90
16485;DHT22;8353;47.856;12.344;2023-02-24T01:01:57;8.70;99.90
16485;DHT22;8353;47.856;12.344;2023-02-24T01:04:29;8.70;99.90
16485;DHT22;8353;47.856;12.344;2023-02-24T01:07:00;8.80;99.90
16485;DHT22;8353;47.856;12.344;2023-02-24T01:09:31;8.70;99.90
16485;DHT22;8353;47.856;12.344;2023-02-24T01:12:06;8.70;99.90
16485;DHT22;8353;47.856;12.344;2023-02-24T01:14:54;8.80;99.90
16485;DHT22;8353;47.856;12.344;2023-02-24T01:17:25;8.80;99.90
16485;DHT22;8353;47.856;12.344;2023-02-24T01:19:57;8.80;99.90
16485;DHT22;8353;47.856;12.344;2023-02-24T01:22:28;8.80;99.90
16485;DHT22;8353;47.856;12.344;2023-02-24T01:24:59;8.80;99.90
16485;DHT22;8353;47.856;12.344;2023-02-24T01:27:29;8.70;99.90
16485;DHT22;8353;47.856;12.344;2023-02-24T01:30:00;8.80;99.90
16485;DHT22;8353;47.856;12.344;2023-02-24T01:32:33;8.80;99.90
16485;DHT22;8353;47.856;12.344;2023-02-24T01:35:05;8.80;99.90
16485;DHT22;8353;47.856;12.344;2023-02-24T01:37:36;8.90;99.90
16485;DHT22;8353;47.856;12.344;2023-02-24T01:40:10;8.90;99.90
16485;DHT22;8353;47.856;12.344;2023-02-24T01:42:46;8.90;99.90
16485;DHT22;8353;47.856;12.344;2023-02-24T01:45:20;8.90;99.90
16485;DHT22;8353;47.856;12.344;2023-02-24T01:47:52;8.90;99.90
16485;DHT22;8353;47.856;12.344;2023-02-24T01:50:25;8.90;99.90
16485;DHT22;8353;47.856;12.344;2023-02-24T01:52:59;8.90;99.90
16485;DHT22;8353;47.856;12.344;2023-02-24T01:55:34;8.90;99.90
16485;DHT22;8353;47.856;12.344;2023-02-24T01:58:11;8.90;99.90
16485;DHT22;8353;47.856;12.344;2023-02-24T02:00:43;8.90;99.90
16485;DHT22;8353;47.856;12.344;2023-02-24T02:03:23;8.90;99.90
16485;DHT22;8353;47.856;12.344;2023-02-24T02:05:59;8.90;99.90
16485;DHT22;8353;47.856;12.344;2023-02-24T02:08:31;9.00;99.90
16485;DHT22;8353;47.856;12.344;2023-02-24T02:11:06;9.00;99.90
16485;DHT22;8353;47.856;12.344;2023-02-24T02:13:40;9.10;99.90
16485;DHT22;8353;47.856;12.344;2023-02-24T02:16:22;9.10;99.90
16485;DHT22;8353;47.856;12.344;2023-02-24T02:19:07;9.10;99.90
16485;DHT22;8353;47.856;12.344;2023-02-24T02:22:19;9.10;99.90
16485;DHT22;8353;47.856;12.344;2023-02-24T02:24:56;9.10;99.90
16485;DHT22;8353;47.856;12.344;2023-02-24T02:28:07;9.20;99.90
16485;DHT22;8353;47.856;12.344;2023-02-24T02:30:52;9.20;99.90
16485;DHT22;8353;47.856;12.344;2023-02-24T02:34:09;9.20;99.90
16485;DHT22;8353;47.856;12.344;2023-02-24T02:36:51;9.10;99.90
16485;DHT22;8353;47.856;12.344;2023-02-24T02:39:30;9.20;99.90
16485;DHT22;8353;47.856;12.344;2023-02-24T02:42:07;9.10;99.90
16485;DHT22;8353;47.856;12.344;2023-02-24T02:44:49;9.10;99.90
16485;DHT22;8353;47.856;12.344;2023-02-24T02:47:27;9.20;99.90
16485;DHT22;8353;47.856;12.344;2023-02-24T02:50:09;9.10;99.90
16485;DHT22;8353;47.856;12.344;2023-02-24T02:52:44;9.10;99.90
16485;DHT22;8353;47.856;12.344;2023-02-24T02:55:22;9.20;99.90
16485;DHT22;8353;47.856;12.344;2023-02-24T02:58:33;9.20;99.90
16485;DHT22;8353;47.856;12.344;2023-02-24T03:01:05;9.10;99.90
16485;DHT22;8353;47.856;12.344;2023-02-24T03:03:39;9.10;99.90
16485;DHT22;8353;47.856;12.344;2023-02-24T03:06:14;9.00;99.90
16485;DHT22;8353;47.856;12.344;2023-02-24T03:08:50;9.00;99.90
16485;DHT22;8353;47.856;12.344;2023-02-24T03:11:22;8.90;99.90
16485;DHT22;8353;47.856;12.344;2023-02-24T03:13:55;8.90;99.90
16485;DHT22;8353;47.856;12.344;2023-02-24T03:16:27;9.00;99.90
16485;DHT22;8353;47.856;12.344;2023-02-24T03:19:01;9.00;99.90
16485;DHT22;8353;47.856;12.344;2023-02-24T03:21:37;8.90;99.90
16485;DHT22;8353;47.856;12.344;2023-02-24T03:24:08;8.80;99.90
16485;DHT22;8353;47.856;12.344;2023-02-24T03:26:42;8.80;99.90
16485;DHT22;8353;47.856;12.344;2023-02-24T03:29:19;8.80;99.90
16485;DHT22;8353;47.856;12.344;2023-02-24T03:31:57;8.90;99.90
16485;DHT22;8353;47.856;12.344;2023-02-24T03:34:32;8.80;99.90
16485;DHT22;8353;47.856;12.344;2023-02-24T03:37:08;8.70;99.90
16485;DHT22;8353;47.856;12.344;2023-02-24T03:39:39;8.80;99.90
16485;DHT22;8353;47.856;12.344;2023-02-24T03:42:12;8.80;99.90
16485;DHT22;8353;47.856;12.344;2023-02-24T03:44:45;8.80;99.90
16485;DHT22;8353;47.856;12.344;2023-02-24T03:47:16;8.70;99.90
16485;DHT22;8353;47.856;12.344;2023-02-24T03:49:48;8.70;99.90
16485;DHT22;8353;47.856;12.344;2023-02-24T03:52:27;8.70;99.90
16485;DHT22;8353;47.856;12.344;2023-02-24T03:55:15;8.60;99.90
16485;DHT22;8353;47.856;12.344;2023-02-24T03:57:59;8.60;99.90
16485;DHT22;8353;47.856;12.344;2023-02-24T04:00:37;8.60;99.90
16485;DHT22;8353;47.856;12.344;2023-02-24T04:03:17;8.50;99.90
16485;DHT22;8353;47.856;12.344;2023-02-24T04:05:58;8.50;99.90
16485;DHT22;8353;47.856;12.344;2023-02-24T04:08:38;8.50;99.90
16485;DHT22;8353;47.856;12.344;2023-02-24T04:11:13;8.50;99.90
16485;DHT22;8353;47.856;12.344;2023-02-24T04:13:51;8.50;99.90
16485;DHT22;8353;47.856;12.344;2023-02-24T04:16:29;8.50;99.90
16485;DHT22;8353;47.856;12.344;2023-02-24T04:19:08;8.30;99.90
16485;DHT22;8353;47.856;12.344;2023-02-24T04:21:41;8.30;99.90
16485;DHT22;8353;47.856;12.344;2023-02-24T04:24:15;8.20;99.90
16485;DHT22;8353;47.856;12.344;2023-02-24T04:26:47;8.10;99.90
16485;DHT22;8353;47.856;12.344;2023-02-24T04:29:21;8.00;99.90
16485;DHT22;8353;47.856;12.344;2023-02-24T04:31:56;7.90;99.90
16485;DHT22;8353;47.856;12.344;2023-02-24T04:34:27;7.80;99.90
16485;DHT22;8353;47.856;12.344;2023-02-24T04:37:00;7.70;99.90
16485;DHT22;8353;47.856;12.344;2023-02-24T04:39:33;7.80;99.90
16485;DHT22;8353;47.856;12.344;2023-02-24T04:42:06;7.90;99.90
16485;DHT22;8353;47.856;12.344;2023-02-24T04:44:37;7.90;99.90
16485;DHT22;8353;47.856;12.344;2023-02-24T04:47:09;7.80;99.90
16485;DHT22;8353;47.856;12.344;2023-02-24T04:49:40;7.80;99.90
16485;DHT22;8353;47.856;12.344;2023-02-24T04:52:11;7.80;99.90
16485;DHT22;8353;47.856;12.344;2023-02-24T04:54:44;7.80;99.90
16485;DHT22;8353;47.856;12.344;2023-02-24T04:57:16;7.90;99.90
16485;DHT22;8353;47.856;12.344;2023-02-24T04:59:47;7.80;99.90
16485;DHT22;8353;47.856;12.344;2023-02-24T05:02:17;7.80;99.90
16485;DHT22;8353;47.856;12.344;2023-02-24T05:04:49;7.70;99.90
16485;DHT22;8353;47.856;12.344;2023-02-24T05:07:19;7.70;99.90
16485;DHT22;8353;47.856;12.344;2023-02-24T05:09:52;7.50;99.90
16485;DHT22;8353;47.856;12.344;2023-02-24T05:12:23;7.40;99.90
16485;DHT22;8353;47.856;12.344;2023-02-24T05:14:54;7.40;99.90
16485;DHT22;8353;47.856;12.344;2023-02-24T05:17:24;7.40;99.90
16485;DHT22;8353;47.856;12.344;2023-02-24T05:19:55;7.50;99.90
16485;DHT22;8353;47.856;12.344;2023-02-24T05:22:43;7.50;99.90
16485;DHT22;8353;47.856;12.344;2023-02-24T05:25:21;7.40;99.90
16485;DHT22;8353;47.856;12.344;2023-02-24T05:27:53;7.40;99.90
16485;DHT22;8353;47.856;12.344;2023-02-24T05:30:25;7.50;99.90
16485;DHT22;8353;47.856;12.344;2023-02-24T05:32:59;7.50;99.90
16485;DHT22;8353;47.856;12.344;2023-02-24T05:35:30;7.40;99.90
16485;DHT22;8353;47.856;12.344;2023-02-24T05:38:00;7.30;99.90
16485;DHT22;8353;47.856;12.344;2023-02-24T05:40:33;7.30;99.90
16485;DHT22;8353;47.856;12.344;2023-02-24T05:43:04;7.20;99.90
16485;DHT22;8353;47.856;12.344;2023-02-24T05:45:35;7.20;99.90
16485;DHT22;8353;47.856;12.344;2023-02-24T05:48:05;7.20;99.90
16485;DHT22;8353;47.856;12.344;2023-02-24T05:50:36;7.20;99.90
16485;DHT22;8353;47.856;12.344;2023-02-24T05:53:07;7.10;99.90
16485;DHT22;8353;47.856;12.344;2023-02-24T05:55:39;7.10;99.90
16485;DHT22;8353;47.856;12.344;2023-02-24T05:58:11;7.10;99.90
16485;DHT22;8353;47.856;12.344;2023-02-24T06:00:44;7.20;99.90
16485;DHT22;8353;47.856;12.344;2023-02-24T06:03:14;7.20;99.90
16485;DHT22;8353;47.856;12.344;2023-02-24T06:05:52;7.30;99.90
16485;DHT22;8353;47.856;12.344;2023-02-24T06:08:22;7.30;99.90
16485;DHT22;8353;47.856;12.344;2023-02-24T06:10:55;7.30;99.90
16485;DHT22;8353;47.856;12.344;2023-02-24T06:13:27;7.20;99.90
16485;DHT22;8353;47.856;12.344;2023-02-24T06:15:57;7.30;99.90
16485;DHT22;8353;47.856;12.344;2023-02-24T06:18:29;7.30;99.90
16485;DHT22;8353;47.856;12.344;2023-02-24T06:21:00;7.40;99.90
16485;DHT22;8353;47.856;12.344;2023-02-24T06:23:31;7.40;99.90
16485;DHT22;8353;47.856;12.344;2023-02-24T06:26:06;7.40;99.90
16485;DHT22;8353;47.856;12.344;2023-02-24T06:28:41;7.40;99.90
16485;DHT22;8353;47.856;12.344;2023-02-24T06:31:11;7.40;99.90
16485;DHT22;8353;47.856;12.344;2023-02-24T06:33:42;7.40;99.90
16485;DHT22;8353;47.856;12.344;2023-02-24T06:36:13;7.50;99.90
16485;DHT22;8353;47.856;12.344;2023-02-24T06:38:43;7.60;99.90
16485;DHT22;8353;47.856;12.344;2023-02-24T06:41:15;7.50;99.90
16485;DHT22;8353;47.856;12.344;2023-02-24T06:43:46;7.60;99.90
16485;DHT22;8353;47.856;12.344;2023-02-24T06:46:17;7.70;99.90
16485;DHT22;8353;47.856;12.344;2023-02-24T06:48:48;7.60;99.90
16485;DHT22;8353;47.856;12.344;2023-02-24T06:51:19;7.60;99.90
16485;DHT22;8353;47.856;12.344;2023-02-24T06:53:51;7.40;99.90
16485;DHT22;8353;47.856;12.344;2023-02-24T06:56:22;7.40;99.90
16485;DHT22;8353;47.856;12.344;2023-02-24T06:58:54;7.40;99.90
16485;DHT22;8353;47.856;12.344;2023-02-24T07:01:26;7.50;99.90
16485;DHT22;8353;47.856;12.344;2023-02-24T07:03:57;7.60;99.90
16485;DHT22;8353;47.856;12.344;2023-02-24T07:06:49;7.60;99.90
16485;DHT22;8353;47.856;12.344;2023-02-24T07:09:22;7.60;99.90
16485;DHT22;8353;47.856;12.344;2023-02-24T07:11:56;7.70;99.90
16485;DHT22;8353;47.856;12.344;2023-02-24T07:14:27;7.70;99.90
16485;DHT22;8353;47.856;12.344;2023-02-24T07:16:59;7.70;99.90
16485;DHT22;8353;47.856;12.344;2023-02-24T07:19:30;7.70;99.90
16485;DHT22;8353;47.856;12.344;2023-02-24T07:22:02;7.80;99.90
16485;DHT22;8353;47.856;12.344;2023-02-24T07:24:34;7.90;99.90
16485;DHT22;8353;47.856;12.344;2023-02-24T07:27:11;7.90;99.90
16485;DHT22;8353;47.856;12.344;2023-02-24T07:29:50;8.00;99.90
16485;DHT22;8353;47.856;12.344;2023-02-24T07:32:22;8.10;99.90
16485;DHT22;8353;47.856;12.344;2023-02-24T07:34:53;8.10;99.90
16485;DHT22;8353;47.856;12.344;2023-02-24T07:37:24;8.10;99.90
16485;DHT22;8353;47.856;12.344;2023-02-24T07:39:59;8.20;99.90
16485;DHT22;8353;47.856;12.344;2023-02-24T07:42:32;8.30;99.90
16485;DHT22;8353;47.856;12.344;2023-02-24T07:45:05;8.30;99.90
16485;DHT22;8353;47.856;12.344;2023-02-24T07:47:35;8.50;99.90
16485;DHT22;8353;47.856;12.344;2023-02-24T07:50:06;8.50;99.90
16485;DHT22;8353;47.856;12.344;2023-02-24T07:52:42;8.60;99.90
16485;DHT22;8353;47.856;12.344;2023-02-24T07:55:14;8.60;99.90
16485;DHT22;8353;47.856;12.344;2023-02-24T07:57:47;8.60;99.90
16485;DHT22;8353;47.856;12.344;2023-02-24T08:00:18;8.80;99.90
16485;DHT22;8353;47.856;12.344;2023-02-24T08:02:49;8.80;99.90
16485;DHT22;8353;47.856;12.344;2023-02-24T08:05:19;8.80;99.90
16485;DHT22;8353;47.856;12.344;2023-02-24T08:07:50;8.70;99.90
16485;DHT22;8353;47.856;12.344;2023-02-24T08:10:21;8.60;99.90
16485;DHT22;8353;47.856;12.344;2023-02-24T08:12:56;8.60;99.90
16485;DHT22;8353;47.856;12.344;2023-02-24T08:15:31;8.70;99.90
16485;DHT22;8353;47.856;12.344;2023-02-24T08:18:03;8.60;99.90
16485;DHT22;8353;47.856;12.344;2023-02-24T08:20:33;8.70;99.90
16485;DHT22;8353;47.856;12.344;2023-02-24T08:23:19;8.80;99.90
16485;DHT22;8353;47.856;12.344;2023-02-24T08:25:51;8.80;99.90
16485;DHT22;8353;47.856;12.344;2023-02-24T08:28:23;8.80;99.90
16485;DHT22;8353;47.856;12.344;2023-02-24T08:30:55;8.90;99.90
16485;DHT22;8353;47.856;12.344;2023-02-24T08:33:26;9.00;99.90
16485;DHT22;8353;47.856;12.344;2023-02-24T08:35:58;9.20;99.90
16485;DHT22;8353;47.856;12.344;2023-02-24T08:38:31;9.20;99.90
16485;DHT22;8353;47.856;12.344;2023-02-24T08:41:20;9.20;99.90
16485;DHT22;8353;47.856;12.344;2023-02-24T08:44:13;9.30;99.90
16485;DHT22;8353;47.856;12.344;2023-02-24T08:46:47;9.40;99.90
16485;DHT22;8353;47.856;12.344;2023-02-24T08:49:18;9.50;99.90
16485;DHT22;8353;47.856;12.344;2023-02-24T08:51:50;9.60;99.90
16485;DHT22;8353;47.856;12.344;2023-02-24T08:54:22;9.80;99.90
16485;DHT22;8353;47.856;12.344;2023-02-24T08:56:55;10.00;99.90
16485;DHT22;8353;47.856;12.344;2023-02-24T08:59:28;10.10;99.90
16485;DHT22;8353;47.856;12.344;2023-02-24T09:02:11;10.30;99.90
16485;DHT22;8353;47.856;12.344;2023-02-24T09:04:54;10.40;99.90
16485;DHT22;8353;47.856;12.344;2023-02-24T09:07:26;10.50;99.90
16485;DHT22;8353;47.856;12.344;2023-02-24T09:09:58;10.70;99.90
16485;DHT22;8353;47.856;12.344;2023-02-24T09:12:29;10.70;99.90
16485;DHT22;8353;47.856;12.344;2023-02-24T09:15:03;10.80;99.90
16485;DHT22;8353;47.856;12.344;2023-02-24T09:17:34;10.90;99.90
16485;DHT22;8353;47.856;12.344;2023-02-24T09:20:19;11.00;99.90
16485;DHT22;8353;47.856;12.344;2023-02-24T09:23:24;11.00;99.90
16485;DHT22;8353;47.856;12.344;2023-02-24T09:25:58;11.00;99.90
16485;DHT22;8353;47.856;12.344;2023-02-24T09:28:39;11.10;99.90
16485;DHT22;8353;47.856;12.344;2023-02-24T09:31:19;11.10;99.90
16485;DHT22;8353;47.856;12.344;2023-02-24T09:33:52;11.20;99.90
16485;DHT22;8353;47.856;12.344;2023-02-24T09:36:22;11.30;99.90
16485;DHT22;8353;47.856;12.344;2023-02-24T09:38:59;11.40;99.90
16485;DHT22;8353;47.856;12.344;2023-02-24T09:41:40;11.40;99.90
16485;DHT22;8353;47.856;12.344;2023-02-24T09:44:28;11.50;99.90
16485;DHT22;8353;47.856;12.344;2023-02-24T09:47:09;11.50;99.90
16485;DHT22;8353;47.856;12.344;2023-02-24T09:49:47;11.50;99.90
16485;DHT22;8353;47.856;12.344;2023-02-24T09:52:18;11.60;99.90
16485;DHT22;8353;47.856;12.344;2023-02-24T09:54:51;11.70;99.90
16485;DHT22;8353;47.856;12.344;2023-02-24T09:57:44;11.70;99.90
16485;DHT22;8353;47.856;12.344;2023-02-24T10:00:47;11.80;99.90
16485;DHT22;8353;47.856;12.344;2023-02-24T10:03:24;11.80;99.90
16485;DHT22;8353;47.856;12.344;2023-02-24T10:06:16;11.80;99.90
16485;DHT22;8353;47.856;12.344;2023-02-24T10:08:53;11.70;99.90
16485;DHT22;8353;47.856;12.344;2023-02-24T10:11:27;11.80;99.90
16485;DHT22;8353;47.856;12.344;2023-02-24T10:14:03;11.90;99.90
16485;DHT22;8353;47.856;12.344;2023-02-24T10:16:39;12.00;99.90
16485;DHT22;8353;47.856;12.344;2023-02-24T10:19:23;12.00;99.90
16485;DHT22;8353;47.856;12.344;2023-02-24T10:21:59;12.10;99.90
16485;DHT22;8353;47.856;12.344;2023-02-24T10:24:35;12.10;99.90
16485;DHT22;8353;47.856;12.344;2023-02-24T10:27:12;12.30;99.90
16485;DHT22;8353;47.856;12.344;2023-02-24T10:29:52;12.40;99.90
16485;DHT22;8353;47.856;12.344;2023-02-24T10:32:35;12.40;99.90
16485;DHT22;8353;47.856;12.344;2023-02-24T10:35:15;12.40;99.90
16485;DHT22;8353;47.856;12.344;2023-02-24T10:37:46;12.50;99.90
16485;DHT22;8353;47.856;12.344;2023-02-24T10:40:17;12.50;99.90
16485;DHT22;8353;47.856;12.344;2023-02-24T10:43:04;12.50;99.90
16485;DHT22;8353;47.856;12.344;2023-02-24T10:45:39;12.50;99.90
16485;DHT22;8353;47.856;12.344;2023-02-24T10:48:18;12.50;99.90
16485;DHT22;8353;47.856;12.344;2023-02-24T10:50:55;12.60;99.90
16485;DHT22;8353;47.856;12.344;2023-02-24T10:53:36;12.60;99.90
16485;DHT22;8353;47.856;12.344;2023-02-24T10:56:10;12.60;99.90
16485;DHT22;8353;47.856;12.344;2023-02-24T10:59:02;12.70;99.90
16485;DHT22;8353;47.856;12.344;2023-02-24T11:01:53;12.80;99.90
16485;DHT22;8353;47.856;12.344;2023-02-24T11:04:32;12.90;99.90
16485;DHT22;8353;47.856;12.344;2023-02-24T11:07:23;13.00;99.90
16485;DHT22;8353;47.856;12.344;2023-02-24T11:10:04;13.10;99.90
16485;DHT22;8353;47.856;12.344;2023-02-24T11:12:44;13.20;99.90
16485;DHT22;8353;47.856;12.344;2023-02-24T11:15:34;13.20;99.90
16485;DHT22;8353;47.856;12.344;2023-02-24T11:18:26;13.20;99.90
16485;DHT22;8353;47.856;12.344;2023-02-24T11:20:58;13.30;99.90
16485;DHT22;8353;47.856;12.344;2023-02-24T11:23:33;13.40;99.90
16485;DHT22;8353;47.856;12.344;2023-02-24T11:26:11;13.40;99.90
16485;DHT22;8353;47.856;12.344;2023-02-24T11:28:58;13.60;99.90
16485;DHT22;8353;47.856;12.344;2023-02-24T11:31:43;13.60;99.90
16485;DHT22;8353;47.856;12.344;2023-02-24T11:34:25;13.70;99.90
16485;DHT22;8353;47.856;12.344;2023-02-24T11:37:04;13.80;99.90
16485;DHT22;8353;47.856;12.344;2023-02-24T11:39:49;13.80;99.90
16485;DHT22;8353;47.856;12.344;2023-02-24T11:42:25;13.80;99.90
16485;DHT22;8353;47.856;12.344;2023-02-24T11:45:00;13.80;99.90
16485;DHT22;8353;47.856;12.344;2023-02-24T11:47:37;13.80;99.90
16485;DHT22;8353;47.856;12.344;2023-02-24T11:50:23;13.80;99.90
16485;DHT22;8353;47.856;12.344;2023-02-24T11:52:57;13.90;99.90
16485;DHT22;8353;47.856;12.344;2023-02-24T11:55:33;13.90;99.90
16485;DHT22;8353;47.856;12.344;2023-02-24T11:58:13;14.00;99.90
16485;DHT22;8353;47.856;12.344;2023-02-24T12:00:52;14.00;99.90
16485;DHT22;8353;47.856;12.344;2023-02-24T12:03:29;14.00;99.90
16485;DHT22;8353;47.856;12.344;2023-02-24T12:06:12;14.00;99.90
16485;DHT22;8353;47.856;12.344;2023-02-24T12:08:49;13.90;99.90
16485;DHT22;8353;47.856;12.344;2023-02-24T12:11:31;13.90;99.90
16485;DHT22;8353;47.856;12.344;2023-02-24T12:14:14;13.90;99.90
16485;DHT22;8353;47.856;12.344;2023-02-24T12:16:53;13.90;99.90
16485;DHT22;8353;47.856;12.344;2023-02-24T12:19:30;13.90;99.90
16485;DHT22;8353;47.856;12.344;2023-02-24T12:22:08;13.90;99.90
16485;DHT22;8353;47.856;12.344;2023-02-24T12:24:45;13.90;99.90
16485;DHT22;8353;47.856;12.344;2023-02-24T12:27:29;13.90;99.90
16485;DHT22;8353;47.856;12.344;2023-02-24T12:30:21;13.90;99.90
16485;DHT22;8353;47.856;12.344;2023-02-24T12:33:20;13.90;99.90
16485;DHT22;8353;47.856;12.344;2023-02-24T12:35:58;13.90;99.90
16485;DHT22;8353;47.856;12.344;2023-02-24T12:38:41;13.90;99.90
16485;DHT22;8353;47.856;12.344;2023-02-24T12:41:26;13.90;99.90
16485;DHT22;8353;47.856;12.344;2023-02-24T12:44:08;13.90;99.90
16485;DHT22;8353;47.856;12.344;2023-02-24T12:46:50;14.00;99.90
16485;DHT22;8353;47.856;12.344;2023-02-24T12:49:32;14.00;99.90
16485;DHT22;8353;47.856;12.344;2023-02-24T12:52:14;13.90;99.90
16485;DHT22;8353;47.856;12.344;2023-02-24T12:54:51;13.90;99.90
16485;DHT22;8353;47.856;12.344;2023-02-24T12:57:27;13.90;99.90
16485;DHT22;8353;47.856;12.344;2023-02-24T13:00:05;13.90;99.90
16485;DHT22;8353;47.856;12.344;2023-02-24T13:02:45;14.00;99.90
16485;DHT22;8353;47.856;12.344;2023-02-24T13:05:21;14.00;99.90
16485;DHT22;8353;47.856;12.344;2023-02-24T13:08:08;14.00;99.90
16485;DHT22;8353;47.856;12.344;2023-02-24T13:10:44;14.10;99.90
16485;DHT22;8353;47.856;12.344;2023-02-24T13:13:23;14.10;99.90
16485;DHT22;8353;47.856;12.344;2023-02-24T13:15:57;14.10;99.90
16485;DHT22;8353;47.856;12.344;2023-02-24T13:18:31;14.10;99.90
16485;DHT22;8353;47.856;12.344;2023-02-24T13:21:08;14.20;99.90
16485;DHT22;8353;47.856;12.344;2023-02-24T13:23:53;14.10;99.90
16485;DHT22;8353;47.856;12.344;2023-02-24T13:26:26;14.10;99.90
16485;DHT22;8353;47.856;12.344;2023-02-24T13:29:00;14.10;99.90
16485;DHT22;8353;47.856;12.344;2023-02-24T13:31:43;14.10;99.90
16485;DHT22;8353;47.856;12.344;2023-02-24T13:34:30;14.10;99.90
16485;DHT22;8353;47.856;12.344;2023-02-24T13:37:01;14.10;99.90
16485;DHT22;8353;47.856;12.344;2023-02-24T13:39:34;14.20;99.90
16485;DHT22;8353;47.856;12.344;2023-02-24T13:42:20;14.20;99.90
16485;DHT22;8353;47.856;12.344;2023-02-24T13:45:02;14.20;99.90
16485;DHT22;8353;47.856;12.344;2023-02-24T13:47:56;14.20;99.90
16485;DHT22;8353;47.856;12.344;2023-02-24T13:50:34;14.30;99.90
16485;DHT22;8353;47.856;12.344;2023-02-24T13:53:27;14.30;99.90
16485;DHT22;8353;47.856;12.344;2023-02-24T13:56:10;14.30;99.90
16485;DHT22;8353;47.856;12.344;2023-02-24T13:58:57;14.40;99.90
16485;DHT22;8353;47.856;12.344;2023-02-24T14:01:45;14.40;99.90
16485;DHT22;8353;47.856;12.344;2023-02-24T14:04:20;14.30;99.90
16485;DHT22;8353;47.856;12.344;2023-02-24T14:06:54;14.20;99.90
16485;DHT22;8353;47.856;12.344;2023-02-24T14:09:29;14.10;99.90
16485;DHT22;8353;47.856;12.344;2023-02-24T14:12:04;14.20;99.90
16485;DHT22;8353;47.856;12.344;2023-02-24T14:14:37;14.10;99.90
16485;DHT22;8353;47.856;12.344;2023-02-24T14:17:19;14.00;99.90
16485;DHT22;8353;47.856;12.344;2023-02-24T14:19:51;14.00;99.90
16485;DHT22;8353;47.856;12.344;2023-02-24T14:22:22;14.00;99.90
16485;DHT22;8353;47.856;12.344;2023-02-24T14:25:02;13.90;99.90
16485;DHT22;8353;47.856;12.344;2023-02-24T14:27:33;13.80;99.90
16485;DHT22;8353;47.856;12.344;2023-02-24T14:30:05;13.80;99.90
16485;DHT22;8353;47.856;12.344;2023-02-24T14:32:35;13.70;99.90
16485;DHT22;8353;47.856;12.344;2023-02-24T14:35:19;13.60;99.90
16485;DHT22;8353;47.856;12.344;2023-02-24T14:37:50;13.70;99.90
16485;DHT22;8353;47.856;12.344;2023-02-24T14:40:23;13.70;99.90
16485;DHT22;8353;47.856;12.344;2023-02-24T14:42:54;13.70;99.90
16485;DHT22;8353;47.856;12.344;2023-02-24T14:45:27;13.90;99.90
16485;DHT22;8353;47.856;12.344;2023-02-24T14:47:59;13.80;99.90
16485;DHT22;8353;47.856;12.344;2023-02-24T14:50:32;13.80;99.90
16485;DHT22;8353;47.856;12.344;2023-02-24T14:53:04;13.80;99.90
16485;DHT22;8353;47.856;12.344;2023-02-24T14:55:39;13.80;99.90
16485;DHT22;8353;47.856;12.344;2023-02-24T14:58:14;13.80;99.90
16485;DHT22;8353;47.856;12.344;2023-02-24T15:00:48;13.80;99.90
16485;DHT22;8353;47.856;12.344;2023-02-24T15:03:23;13.60;99.90
16485;DHT22;8353;47.856;12.344;2023-02-24T15:05:58;13.70;99.90
16485;DHT22;8353;47.856;12.344;2023-02-24T15:08:38;13.60;99.90
16485;DHT22;8353;47.856;12.344;2023-02-24T15:11:18;13.60;99.90
16485;DHT22;8353;47.856;12.344;2023-02-24T15:13:52;13.50;99.90
16485;DHT22;8353;47.856;12.344;2023-02-24T15:16:26;13.50;99.90
16485;DHT22;8353;47.856;12.344;2023-02-24T15:18:59;13.50;99.90
16485;DHT22;8353;47.856;12.344;2023-02-24T15:21:33;13.60;99.90
16485;DHT22;8353;47.856;12.344;2023-02-24T15:24:16;13.50;99.90
16485;DHT22;8353;47.856;12.344;2023-02-24T15:26:51;13.50;99.90
16485;DHT22;8353;47.856;12.344;2023-02-24T15:29:24;13.60;99.90
16485;DHT22;8353;47.856;12.344;2023-02-24T15:31:58;13.70;99.90
16485;DHT22;8353;47.856;12.344;2023-02-24T15:34:29;13.60;99.90
16485;DHT22;8353;47.856;12.344;2023-02-24T15:37:15;13.60;99.90
16485;DHT22;8353;47.856;12.344;2023-02-24T15:39:48;13.50;99.90
16485;DHT22;8353;47.856;12.344;2023-02-24T15:42:23;13.60;99.90
16485;DHT22;8353;47.856;12.344;2023-02-24T15:44:57;13.60;99.90
16485;DHT22;8353;47.856;12.344;2023-02-24T15:47:39;13.50;99.90
16485;DHT22;8353;47.856;12.344;2023-02-24T15:50:11;13.50;99.90
16485;DHT22;8353;47.856;12.344;2023-02-24T15:52:43;13.40;99.90
16485;DHT22;8353;47.856;12.344;2023-02-24T15:55:15;13.40;99.90
16485;DHT22;8353;47.856;12.344;2023-02-24T15:57:47;13.50;99.90
16485;DHT22;8353;47.856;12.344;2023-02-24T16:00:25;13.50;99.90
16485;DHT22;8353;47.856;12.344;2023-02-24T16:02:55;13.50;99.90
16485;DHT22;8353;47.856;12.344;2023-02-24T16:05:26;13.50;99.90
16485;DHT22;8353;47.856;12.344;2023-02-24T16:07:58;13.40;99.90
16485;DHT22;8353;47.856;12.344;2023-02-24T16:10:29;13.40;99.90
16485;DHT22;8353;47.856;12.344;2023-02-24T16:13:17;13.50;99.90
16485;DHT22;8353;47.856;12.344;2023-02-24T16:15:49;13.50;99.90
16485;DHT22;8353;47.856;12.344;2023-02-24T16:18:22;13.40;99.90
16485;DHT22;8353;47.856;12.344;2023-02-24T16:20:55;13.40;99.90
16485;DHT22;8353;47.856;12.344;2023-02-24T16:23:28;13.30;99.90
16485;DHT22;8353;47.856;12.344;2023-02-24T16:26:12;13.30;99.90
16485;DHT22;8353;47.856;12.344;2023-02-24T16:28:47;13.30;99.90
16485;DHT22;8353;47.856;12.344;2023-02-24T16:31:18;13.20;99.90
16485;DHT22;8353;47.856;12.344;2023-02-24T16:33:49;13.20;99.90
16485;DHT22;8353;47.856;12.344;2023-02-24T16:36:21;13.20;99.90